Fork, Maryland
Current Conditions -  °F | °C
As of 9:55 AM on Thursday 30 Oct 2014 (Local Time) from KMTN Reporting Station
Scattered Clouds Scattered Clouds  
Wind Chill: 11°   Ceiling: Unl
Heat Index: 11°   Visibility: 10mi
Dew Point:   Wind: 10mph
Humidity: 82%   Direction: 290°WNW
Pressure: 30.07"   Gusts: NA
Location:  39.47°N, 76.44°W
Report Text: KMTN 301355Z 29009KT 10SM SCT060 11/08 A3007
Loading
Personal Weather Stations






























Interactive Weather Map
Tropical Storm Tracking
New forecast layout! Learn more

10-Day Weather Forecast

Advertisements
Track Severe Weather on mobile